Flight Track Log - Related Links

Times and Time Zones

All times are in EDT time to prevent confusion due to time zone crossing. See the N960DL flight status page for this flight to view local times or setup timezone preferences in your user account.

Time Position Orientation Groundspeed Altitude Reporting Facility
EDT Latitude Longitude Course Direction KTS MPH feet Rate Location/Type
Sat 08:03:18 PM 33.6500 -84.4833 North 190 219 3,000  Level Atlanta TRACON
Sat 08:04:12 PM 33.6833 -84.5500 301° West 254 292 5,000 2,842 Climbing Atlanta TRACON
Sat 08:05:00 PM 33.8338 -84.1671 320° Northwest  Level FlightAware Approximate
Sat 08:05:12 PM 33.7333 -84.5833 331° Northwest 281 323 8,400  Level Atlanta TRACON
Sat 08:06:00 PM 33.9273 -84.2607 320° Northwest  Level FlightAware Approximate
Sat 08:07:00 PM 34.0471 -84.2667 North  Level FlightAware Approximate
Sat 08:07:41 PM 33.9167 -84.4317 34° Northeast 331 381 13,300  Level Atlanta Center
Sat 08:08:00 PM 34.1686 -84.2667 North  Level FlightAware Approximate
Sat 08:08:41 PM 34.0025 -84.3794 27° Northeast 367 422 15,600  Level Atlanta Center
Sat 08:09:41 PM 34.1111 -84.3425 16° North 385 443 17,800 2,200 Climbing Atlanta Center
Sat 08:10:41 PM 34.2489 -84.2950 16° North 427 491 20,000 2,150 Climbing Atlanta Center
Sat 08:11:41 PM 34.3681 -84.2628 13° North 443 510 22,100 1,950 Climbing Atlanta Center
Sat 08:12:41 PM 34.4975 -84.2328 11° North 457 526 23,900 1,650 Climbing Atlanta Center
Sat 08:13:41 PM 34.6247 -84.2003 12° North 462 532 25,400 1,900 Climbing Atlanta Center
Sat 08:14:41 PM 34.7542 -84.1728 10° North 467 537 27,700 1,967 Climbing Atlanta Center
Sat 08:16:00 PM 34.9100 -84.1237 14° North  Level FlightAware Approximate
Sat 08:16:41 PM 35.0047 -84.1122 14° North 462 532 31,300  Level Atlanta Center
Sat 08:17:41 PM 35.1278 -84.0819 11° North 462 532 32,300 950 Climbing Atlanta Center
Sat 08:18:41 PM 35.2531 -84.0514 11° North 456 525 33,200 1,000 Climbing Atlanta Center
Sat 08:19:41 PM 35.3783 -84.0233 10° North 456 525 34,300 900 Climbing Atlanta Center
Sat 08:20:41 PM 35.5033 -83.9750 17° North 456 525 35,000 350 Climbing Atlanta Center
Sat 08:21:41 PM 35.6244 -83.9161 22° Northeast 457 526 35,000  Level Atlanta Center
Sat 08:22:41 PM 35.7494 -83.8569 21° North 470 541 35,000  Level Atlanta Center
Sat 08:24:14 PM 35.9358 -83.7697 21° North 473 544 35,000  Level Indianapolis Center
Sat 08:25:15 PM 36.0419 -83.7181 21° North 470 541 35,000  Level Indianapolis Center
Sat 08:26:15 PM 36.1867 -83.6472 22° Northeast 467 537 35,000  Level Indianapolis Center
Sat 08:27:16 PM 36.3081 -83.5886 21° North 468 539 35,000  Level Indianapolis Center
Sat 08:28:17 PM 36.4300 -83.5300 21° North 469 540 35,000  Level Indianapolis Center
Sat 08:29:18 PM 36.5456 -83.4742 21° North 470 541 35,000  Level Indianapolis Center
Sat 08:30:19 PM 36.6669 -83.4094 23° Northeast 475 547 35,000  Level Indianapolis Center
Sat 08:31:20 PM 36.7861 -83.3339 27° Northeast 478 550 35,000  Level Indianapolis Center
Sat 08:32:20 PM 36.9064 -83.2644 25° Northeast 479 551 35,000  Level Indianapolis Center
Sat 08:33:21 PM 37.0294 -83.1958 24° Northeast 481 554 35,000  Level Indianapolis Center
Sat 08:34:22 PM 37.1533 -83.1256 24° Northeast 484 557 35,000  Level Indianapolis Center
Sat 08:35:23 PM 37.2753 -83.0556 25° Northeast 478 550 35,000  Level Indianapolis Center
Sat 08:36:24 PM 37.3983 -82.9850 24° Northeast 482 555 35,000  Level Indianapolis Center
Sat 08:37:25 PM 37.5219 -82.9147 24° Northeast 483 556 35,000  Level Indianapolis Center
Sat 08:38:25 PM 37.6461 -82.8408 25° Northeast 491 565 35,000  Level Indianapolis Center
Sat 08:39:26 PM 37.7683 -82.7689 25° Northeast 484 557 35,000  Level Indianapolis Center
Sat 08:40:27 PM 37.8925 -82.6956 25° Northeast 490 564 35,000  Level Indianapolis Center
Sat 08:41:28 PM 38.0161 -82.6206 26° Northeast 490 564 35,000  Level Indianapolis Center
Sat 08:42:29 PM 38.1403 -82.5472 25° Northeast 491 565 35,000  Level Indianapolis Center
Sat 08:43:29 PM 38.2833 -82.4644 24° Northeast 495 570 35,000 -397 Level Indianapolis Center
Sat 08:44:30 PM 38.4075 -82.3922 24° Northeast 487 560 34,200 -1,377 Descending Indianapolis Center
Sat 08:45:31 PM 38.5292 -82.3183 25° Northeast 482 555 32,200 -2,311 Descending Indianapolis Center
Sat 08:46:32 PM 38.6511 -82.2456 25° Northeast 480 552 29,500 -2,628 Descending Indianapolis Center
Sat 08:47:32 PM 38.7722 -82.1733 25° Northeast 477 549 26,900 -2,579 Descending Indianapolis Center
Sat 08:48:33 PM 38.8931 -82.1050 24° Northeast 472 543 24,300 -1,770 Descending Indianapolis Center
Sat 08:49:34 PM 39.0119 -82.1247 353° North 426 490 23,300 -1,339 Descending Indianapolis Center
Sat 08:50:34 PM 39.1136 -82.1664 342° North 389 448 21,600 -2,033 Descending Indianapolis Center
Sat 08:51:35 PM 39.2100 -82.2025 344° North 366 421 19,200 -2,311 Descending Indianapolis Center
Sat 08:52:36 PM 39.3011 -82.2386 343° North 348 400 16,900 -2,420 Descending Indianapolis Center
Sat 08:53:34 PM 39.3867 -82.2769 341° North 326 375 14,400 -2,339 Descending Indianapolis Center
Sat 08:54:34 PM 39.4703 -82.3128 342° North 313 360 12,300 -1,636 Descending Indianapolis Center
Sat 08:55:35 PM 39.5517 -82.3456 343° North 307 353 11,100 -893 Descending Indianapolis Center
Sat 08:56:35 PM 39.6289 -82.3833 339° North 292 336 10,500 -960 Descending Indianapolis Center
Sat 08:57:40 PM 39.6925 -82.4475 322° Northwest 262 302 9,100 -1,426 Descending Indianapolis Center
Sat 08:58:37 PM 39.7447 -82.5042 320° Northwest 251 289 7,600 -1,590 Descending Indianapolis Center
Sat 08:59:37 PM 39.7994 -82.5642 320° Northwest 256 295 6,000 -1,488 Descending Indianapolis Center
Sat 09:00:38 PM 39.8544 -82.6192 322° Northwest 254 292 4,600 -942 Descending Indianapolis Center
Sat 09:01:38 PM 39.9033 -82.6706 321° Northwest 219 252 4,100 -500 Descending Indianapolis Center

Login

Don't have an account? Register now (free) for customized features, flight alerts, and more!